MRP weather

Maran Airport
Mexicali, Baja California, Mexico

Public forecast

Using degrees Celsius for public forecast. Weather courtesy of forecast.io.

METAR (pilot weather report)

Closest report is General Rodolfo Sánchez Taboada International Airport, 10.7 nm (19.8 km) ENE. Retrieved 2019/08/22 16:40 UTC (11 minutes ago):

MMML 221640Z 14007KT 10SM SKC 34/25 A2969

TAF (pilot weather forecast)

Forecast is more than 12 hours old.

Closest forecast is General Rodolfo Sánchez Taboada International Airport, 10.7 nm (19.8 km) ENE. Retrieved 2019/08/21 18:06 UTC (23 hours ago):

TAF MMML 211705Z 2118/2218 33010KT P6SM SKC FM220300 33005KT P6SM SKC FM221800 33010KT P6SM SKC